createdAt,value
2023-05-20T00:01:14.711Z,11.30
2023-05-20T00:03:43.812Z,11.29
2023-05-20T00:06:17.592Z,11.28
2023-05-20T00:08:46.689Z,11.23
2023-05-20T00:11:15.416Z,11.19
2023-05-20T00:13:44.364Z,11.18
2023-05-20T00:16:11.030Z,11.12
2023-05-20T00:18:39.779Z,11.11
2023-05-20T00:21:06.446Z,11.11
2023-05-20T00:23:35.310Z,11.06
2023-05-20T00:26:01.920Z,11.04
2023-05-20T00:28:31.433Z,11.03
2023-05-20T00:30:58.360Z,11.00
2023-05-20T00:33:25.003Z,10.97
2023-05-20T00:35:51.511Z,10.91
2023-05-20T00:38:20.699Z,10.89
2023-05-20T00:40:47.257Z,10.92
2023-05-20T00:43:13.727Z,10.94
2023-05-20T00:45:40.629Z,10.91
2023-05-20T00:48:09.839Z,10.89
2023-05-20T00:50:36.643Z,10.89
2023-05-20T00:53:06.284Z,10.88
2023-05-20T00:55:33.234Z,10.90
2023-05-20T00:58:04.828Z,10.91
2023-05-20T01:00:33.426Z,10.91
2023-05-20T01:03:00.846Z,10.88
2023-05-20T01:05:30.064Z,10.82
2023-05-20T01:07:58.933Z,10.83
2023-05-20T01:10:29.135Z,10.80
2023-05-20T01:13:01.365Z,10.79
2023-05-20T01:15:29.608Z,10.78
2023-05-20T01:18:01.415Z,10.74
2023-05-20T01:20:32.609Z,10.71
2023-05-20T01:22:59.808Z,10.69
2023-05-20T01:25:26.609Z,10.69
2023-05-20T01:27:57.877Z,10.67
2023-05-20T01:30:34.608Z,10.65
2023-05-20T01:33:14.744Z,10.63
2023-05-20T01:35:41.896Z,10.60
2023-05-20T01:38:11.977Z,10.61
2023-05-20T01:40:42.870Z,10.59
2023-05-20T01:43:10.302Z,10.58
2023-05-20T01:45:41.283Z,10.54
2023-05-20T01:48:11.667Z,10.54
2023-05-20T01:50:40.851Z,10.52
2023-05-20T01:53:09.747Z,10.49
2023-05-20T01:55:38.576Z,10.47
2023-05-20T01:58:07.439Z,10.42
2023-05-20T02:00:34.962Z,10.42
2023-05-20T02:03:03.589Z,10.39
2023-05-20T02:05:35.245Z,10.37
2023-05-20T02:08:01.912Z,10.37
2023-05-20T02:10:30.942Z,10.38
2023-05-20T02:12:57.772Z,10.37
2023-05-20T02:15:24.291Z,10.34
2023-05-20T02:17:50.983Z,10.32
2023-05-20T02:20:17.678Z,10.32
2023-05-20T02:22:44.216Z,10.29
2023-05-20T02:25:11.001Z,10.26
2023-05-20T02:27:37.564Z,10.23
2023-05-20T02:30:06.586Z,10.22
2023-05-20T02:32:33.870Z,10.21
2023-05-20T02:35:05.440Z,10.17
2023-05-20T02:37:34.614Z,10.13
2023-05-20T02:40:06.923Z,10.13
2023-05-20T02:42:33.465Z,10.07
2023-05-20T02:44:59.987Z,10.05
2023-05-20T02:47:27.331Z,9.99
2023-05-20T02:49:53.938Z,9.97
2023-05-20T02:52:23.136Z,9.97
2023-05-20T02:54:52.803Z,9.97
2023-05-20T02:57:24.264Z,9.93
2023-05-20T02:59:50.759Z,9.89
2023-05-20T03:02:17.435Z,9.83
2023-05-20T03:04:48.903Z,9.81
2023-05-20T03:07:19.707Z,9.78
2023-05-20T03:09:48.761Z,9.77
2023-05-20T03:12:15.410Z,9.74
2023-05-20T03:14:44.339Z,9.72
2023-05-20T03:17:11.590Z,9.68
2023-05-20T03:19:40.568Z,9.65
2023-05-20T03:22:07.090Z,9.64
2023-05-20T03:24:36.019Z,9.63
2023-05-20T03:27:04.917Z,9.58
2023-05-20T03:29:36.339Z,9.54
2023-05-20T03:32:08.759Z,9.50
2023-05-20T03:34:42.417Z,9.48
2023-05-20T03:37:11.168Z,9.48
2023-05-20T03:39:37.827Z,9.46
2023-05-20T03:42:06.783Z,9.46
2023-05-20T03:44:33.316Z,9.44
2023-05-20T03:46:59.950Z,9.42
2023-05-20T03:49:31.309Z,9.43
2023-05-20T03:52:00.224Z,9.46
2023-05-20T03:54:35.303Z,9.47
2023-05-20T03:57:03.100Z,9.48
2023-05-20T03:59:34.337Z,9.51
2023-05-20T04:02:06.785Z,9.58
2023-05-20T04:04:37.928Z,9.59
2023-05-20T04:07:09.311Z,9.62
2023-05-20T04:09:36.134Z,9.67
2023-05-20T04:12:03.262Z,9.77
2023-05-20T04:14:30.000Z,9.80
2023-05-20T04:16:59.708Z,9.85
2023-05-20T04:19:29.883Z,9.87
2023-05-20T04:21:56.756Z,9.92
2023-05-20T04:24:27.802Z,9.92
2023-05-20T04:26:56.409Z,9.96
2023-05-20T04:29:23.247Z,10.01
2023-05-20T04:31:49.822Z,10.03
2023-05-20T04:34:19.549Z,10.05
2023-05-20T04:36:49.035Z,10.09
2023-05-20T04:39:15.687Z,10.12
2023-05-20T04:41:42.334Z,10.15
2023-05-20T04:44:09.581Z,10.20
2023-05-20T04:46:36.265Z,10.24
2023-05-20T04:49:04.574Z,10.32
2023-05-20T04:51:35.454Z,10.39
2023-05-20T04:54:02.182Z,10.43
2023-05-20T04:56:28.742Z,10.50
2023-05-20T04:58:58.462Z,10.54
2023-05-20T05:01:27.581Z,10.64
2023-05-20T05:03:54.119Z,11.33
2023-05-20T05:06:20.618Z,13.03
2023-05-20T05:08:47.193Z,14.23
2023-05-20T05:11:13.704Z,14.98
2023-05-20T05:13:44.845Z,15.61
2023-05-20T05:16:11.449Z,15.93
2023-05-20T05:18:40.780Z,16.35
2023-05-20T05:21:07.531Z,16.71
2023-05-20T05:23:34.070Z,16.78
2023-05-20T05:26:08.385Z,17.47
2023-05-20T05:28:34.923Z,17.68
2023-05-20T05:31:02.331Z,17.78
2023-05-20T05:33:33.811Z,17.83
2023-05-20T05:36:03.755Z,18.24
2023-05-20T05:38:30.430Z,18.90
2023-05-20T05:41:00.246Z,19.41
2023-05-20T05:43:26.759Z,19.71
2023-05-20T05:45:53.612Z,19.49
2023-05-20T05:48:23.102Z,19.59
2023-05-20T05:50:49.723Z,19.49
2023-05-20T05:53:18.615Z,19.65
2023-05-20T05:55:47.318Z,19.74
2023-05-20T05:58:17.170Z,19.61
2023-05-20T06:00:43.725Z,19.65
2023-05-20T06:03:12.834Z,20.04
2023-05-20T06:05:39.462Z,20.19
2023-05-20T06:08:08.743Z,19.90
2023-05-20T06:10:37.366Z,20.02
2023-05-20T06:13:06.271Z,20.32
2023-05-20T06:15:32.985Z,20.34
2023-05-20T06:17:59.793Z,20.74
2023-05-20T06:20:28.886Z,20.63
2023-05-20T06:22:55.553Z,20.65
2023-05-20T06:25:24.592Z,21.18
2023-05-20T06:27:51.433Z,21.51
2023-05-20T06:30:24.585Z,21.41
2023-05-20T06:32:54.860Z,22.09
2023-05-20T06:35:21.608Z,22.20
2023-05-20T06:37:48.237Z,22.22
2023-05-20T06:40:16.954Z,22.21
2023-05-20T06:42:44.191Z,22.28
2023-05-20T06:45:11.462Z,22.38
2023-05-20T06:47:40.558Z,22.37
2023-05-20T06:50:07.434Z,22.41
2023-05-20T06:52:36.235Z,22.84
2023-05-20T06:55:04.042Z,22.60
2023-05-20T06:57:30.588Z,22.95
2023-05-20T06:59:57.161Z,23.65
2023-05-20T07:02:23.872Z,23.64
2023-05-20T07:04:50.479Z,23.99
2023-05-20T07:07:17.510Z,24.10
2023-05-20T07:09:44.134Z,23.06
2023-05-20T07:12:10.697Z,22.60
2023-05-20T07:14:37.196Z,23.13
2023-05-20T07:17:05.972Z,22.93
2023-05-20T07:19:33.804Z,22.89
2023-05-20T07:22:00.915Z,23.38
2023-05-20T07:24:27.458Z,23.26
2023-05-20T07:26:54.128Z,22.98
2023-05-20T07:29:20.708Z,23.06
2023-05-20T07:31:47.266Z,23.53
2023-05-20T07:34:18.389Z,23.40
2023-05-20T07:36:45.068Z,23.83
2023-05-20T07:39:15.282Z,24.36
2023-05-20T07:41:42.150Z,24.36
2023-05-20T07:44:11.421Z,24.32
2023-05-20T07:46:41.947Z,24.15
2023-05-20T07:49:08.642Z,23.74
2023-05-20T07:51:37.910Z,23.88
2023-05-20T07:54:04.734Z,23.35
2023-05-20T07:56:33.407Z,23.24
2023-05-20T07:59:00.537Z,23.71
2023-05-20T08:01:27.405Z,23.67
2023-05-20T08:03:56.600Z,23.59
2023-05-20T08:06:27.300Z,23.60
2023-05-20T08:08:57.648Z,23.43
2023-05-20T08:11:25.979Z,23.31
2023-05-20T08:13:54.908Z,23.22
2023-05-20T08:16:22.371Z,23.85
2023-05-20T08:18:48.964Z,23.62
2023-05-20T08:21:17.884Z,23.31
2023-05-20T08:23:44.439Z,22.38
2023-05-20T08:26:13.520Z,22.13
2023-05-20T08:28:44.847Z,22.48
2023-05-20T08:31:11.510Z,22.34
2023-05-20T08:33:38.052Z,21.90
2023-05-20T08:36:08.308Z,21.09
2023-05-20T08:38:34.914Z,21.25
2023-05-20T08:41:03.712Z,20.88
2023-05-20T08:43:36.665Z,20.54
2023-05-20T08:46:07.594Z,20.27
2023-05-20T08:48:35.652Z,20.67
2023-05-20T08:51:09.386Z,20.31
2023-05-20T08:53:40.492Z,20.30
2023-05-20T08:56:11.760Z,20.90
2023-05-20T08:58:38.265Z,20.82
2023-05-20T09:01:08.372Z,20.92
2023-05-20T09:03:35.069Z,21.01
2023-05-20T09:06:09.090Z,21.19
2023-05-20T09:08:35.897Z,20.37
2023-05-20T09:11:04.786Z,20.16
2023-05-20T09:13:32.728Z,20.21
2023-05-20T09:16:06.321Z,20.51
2023-05-20T09:18:33.020Z,20.17
2023-05-20T09:21:05.698Z,19.73
2023-05-20T09:23:34.567Z,19.59
2023-05-20T09:26:02.698Z,19.45
2023-05-20T09:28:29.210Z,19.52
2023-05-20T09:30:59.819Z,19.82
2023-05-20T09:33:32.323Z,19.94
2023-05-20T09:36:07.082Z,20.65
2023-05-20T09:38:39.443Z,20.85
2023-05-20T09:41:15.327Z,21.03
2023-05-20T09:43:50.191Z,21.07
2023-05-20T09:46:23.512Z,20.94
2023-05-20T09:48:54.792Z,20.91
2023-05-20T09:51:23.546Z,20.40
2023-05-20T09:53:51.872Z,20.36
2023-05-20T09:56:24.538Z,20.44
2023-05-20T09:58:58.375Z,20.74
2023-05-20T10:01:25.512Z,20.57
2023-05-20T10:03:53.706Z,21.06
2023-05-20T10:06:43.344Z,21.12
2023-05-20T10:09:37.840Z,21.49
2023-05-20T10:12:36.228Z,21.08
2023-05-20T10:15:24.119Z,20.89
2023-05-20T10:18:17.156Z,20.56
2023-05-20T10:20:51.372Z,20.66
2023-05-20T10:23:27.796Z,20.75
2023-05-20T10:25:55.826Z,20.60
2023-05-20T10:28:36.072Z,21.06
2023-05-20T10:31:03.444Z,21.03
2023-05-20T10:33:42.904Z,21.11
2023-05-20T10:36:11.656Z,20.37
2023-05-20T10:38:38.232Z,20.12
2023-05-20T10:41:13.329Z,20.99
2023-05-20T10:43:44.348Z,21.39
2023-05-20T10:46:30.810Z,21.31
2023-05-20T10:49:03.014Z,21.82
2023-05-20T10:51:36.659Z,22.17
2023-05-20T10:54:05.648Z,21.41
2023-05-20T10:56:34.652Z,21.11
2023-05-20T10:59:04.856Z,21.15
2023-05-20T11:01:31.607Z,21.49
2023-05-20T11:04:01.002Z,21.20
2023-05-20T11:06:31.675Z,21.31
2023-05-20T11:09:05.720Z,20.80
2023-05-20T11:11:32.410Z,21.06
2023-05-20T11:14:01.487Z,21.20
2023-05-20T11:16:28.079Z,20.82
2023-05-20T11:18:59.579Z,20.90
2023-05-20T11:21:26.129Z,20.67
2023-05-20T11:23:57.148Z,20.83
2023-05-20T11:26:25.333Z,20.69
2023-05-20T11:28:55.327Z,20.55
2023-05-20T11:31:21.915Z,20.21
2023-05-20T11:33:52.188Z,19.80
2023-05-20T11:36:27.482Z,19.62
2023-05-20T11:38:59.106Z,20.54
2023-05-20T11:41:28.856Z,20.98
2023-05-20T11:43:59.593Z,21.46
2023-05-20T11:46:26.979Z,21.61
2023-05-20T11:48:56.756Z,21.58
2023-05-20T11:51:30.046Z,21.29
2023-05-20T11:54:03.896Z,20.87
2023-05-20T11:56:33.933Z,21.04
2023-05-20T11:59:06.540Z,21.63
2023-05-20T12:01:41.390Z,22.08
2023-05-20T12:04:10.762Z,22.27
2023-05-20T12:06:37.667Z,22.15
2023-05-20T12:09:07.493Z,22.22
2023-05-20T12:11:35.670Z,22.17
2023-05-20T12:14:05.481Z,22.77
2023-05-20T12:16:37.992Z,23.04
2023-05-20T12:19:04.909Z,22.05
2023-05-20T12:21:32.001Z,21.83
2023-05-20T12:24:01.650Z,21.55
2023-05-20T12:26:29.906Z,21.46
2023-05-20T12:28:57.310Z,21.33
2023-05-20T12:31:27.633Z,21.41
2023-05-20T12:33:56.522Z,21.35
2023-05-20T12:36:23.036Z,20.84
2023-05-20T12:38:49.683Z,20.54
2023-05-20T12:41:16.199Z,20.41
2023-05-20T12:43:42.829Z,20.50
2023-05-20T12:46:12.035Z,20.71
2023-05-20T12:48:42.532Z,20.69
2023-05-20T12:51:09.283Z,20.73
2023-05-20T12:53:36.196Z,20.98
2023-05-20T12:56:06.137Z,21.05
2023-05-20T12:58:37.366Z,21.09
2023-05-20T13:01:03.963Z,21.16
2023-05-20T13:03:30.710Z,20.92
2023-05-20T13:05:59.553Z,20.78
2023-05-20T13:08:33.403Z,20.65
2023-05-20T13:11:02.122Z,20.47
2023-05-20T13:13:28.633Z,20.59
2023-05-20T13:15:57.524Z,20.91
2023-05-20T13:18:24.072Z,21.17
2023-05-20T13:20:52.943Z,20.96
2023-05-20T13:23:19.468Z,21.14
2023-05-20T13:25:45.988Z,21.03
2023-05-20T13:28:16.555Z,20.68
2023-05-20T13:30:45.540Z,20.59
2023-05-20T13:33:14.292Z,20.82
2023-05-20T13:35:40.998Z,21.39
2023-05-20T13:38:07.520Z,21.81
2023-05-20T13:40:34.300Z,21.90
2023-05-20T13:43:06.162Z,22.01
2023-05-20T13:45:36.042Z,22.48
2023-05-20T13:48:05.573Z,22.08
2023-05-20T13:50:34.466Z,21.75
2023-05-20T13:53:01.132Z,21.54
2023-05-20T13:55:29.814Z,21.42
2023-05-20T13:57:58.337Z,21.34
2023-05-20T14:00:27.453Z,21.35
2023-05-20T14:02:54.626Z,21.57
2023-05-20T14:05:23.808Z,21.32
2023-05-20T14:07:52.807Z,21.32
2023-05-20T14:10:21.595Z,21.30
2023-05-20T14:12:48.335Z,21.41
2023-05-20T14:15:17.380Z,21.37
2023-05-20T14:17:46.273Z,21.15
2023-05-20T14:20:12.894Z,21.15
2023-05-20T14:22:45.213Z,20.94
2023-05-20T14:25:16.625Z,21.03
2023-05-20T14:27:43.299Z,21.40
2023-05-20T14:30:10.731Z,21.23
2023-05-20T14:32:37.282Z,21.49
2023-05-20T14:35:06.915Z,21.56
2023-05-20T14:37:35.988Z,21.13
2023-05-20T14:40:05.328Z,20.92
2023-05-20T14:42:31.900Z,20.82
2023-05-20T14:44:58.371Z,20.76
2023-05-20T14:47:25.975Z,20.67
2023-05-20T14:49:52.556Z,20.70
2023-05-20T14:52:21.872Z,20.82
2023-05-20T14:54:51.006Z,20.85
2023-05-20T14:57:17.581Z,20.92
2023-05-20T14:59:46.373Z,20.97
2023-05-20T15:02:15.565Z,21.02
2023-05-20T15:04:44.254Z,20.96
2023-05-20T15:07:13.168Z,20.99
2023-05-20T15:09:39.685Z,20.68
2023-05-20T15:12:06.532Z,20.34
2023-05-20T15:14:35.555Z,20.26
2023-05-20T15:17:04.791Z,20.51
2023-05-20T15:19:34.084Z,20.64
2023-05-20T15:22:03.260Z,20.72
2023-05-20T15:24:32.289Z,20.44
2023-05-20T15:26:58.861Z,20.37
2023-05-20T15:29:27.623Z,20.36
2023-05-20T15:31:56.664Z,20.55
2023-05-20T15:34:23.207Z,20.60
2023-05-20T15:36:49.744Z,20.44
2023-05-20T15:39:16.244Z,20.56
2023-05-20T15:41:43.272Z,20.60
2023-05-20T15:44:12.130Z,20.28
2023-05-20T15:46:38.851Z,20.15
2023-05-20T15:49:05.835Z,20.06
2023-05-20T15:51:34.731Z,20.00
2023-05-20T15:54:05.887Z,19.93
2023-05-20T15:56:32.520Z,20.03
2023-05-20T15:59:01.458Z,19.99
2023-05-20T16:01:30.327Z,20.02
2023-05-20T16:03:58.417Z,19.98
2023-05-20T16:06:25.022Z,20.00
2023-05-20T16:08:52.104Z,20.10
2023-05-20T16:11:24.144Z,20.07
2023-05-20T16:13:50.833Z,20.17
2023-05-20T16:16:20.206Z,20.26
2023-05-20T16:18:46.846Z,20.20
2023-05-20T16:21:18.784Z,20.10
2023-05-20T16:23:45.372Z,20.08
2023-05-20T16:26:11.957Z,20.01
2023-05-20T16:28:41.361Z,19.95
2023-05-20T16:31:07.901Z,19.93
2023-05-20T16:33:36.746Z,19.90
2023-05-20T16:36:03.791Z,19.88
2023-05-20T16:38:32.263Z,19.88
2023-05-20T16:40:58.760Z,19.90
2023-05-20T16:43:29.924Z,19.77
2023-05-20T16:45:56.612Z,19.74
2023-05-20T16:48:26.770Z,19.67
2023-05-20T16:50:55.618Z,19.70
2023-05-20T16:53:27.556Z,19.68
2023-05-20T16:55:57.338Z,19.59
2023-05-20T16:58:24.068Z,19.50
2023-05-20T17:00:55.428Z,19.42
2023-05-20T17:03:22.103Z,19.34
2023-05-20T17:05:48.734Z,19.36
2023-05-20T17:08:18.242Z,19.37
2023-05-20T17:10:45.125Z,19.33
2023-05-20T17:13:14.233Z,19.38
2023-05-20T17:15:43.000Z,19.43
2023-05-20T17:18:12.184Z,19.43
2023-05-20T17:20:38.946Z,19.44
2023-05-20T17:23:05.542Z,19.47
2023-05-20T17:25:32.098Z,19.58
2023-05-20T17:28:01.105Z,19.67
2023-05-20T17:30:27.654Z,19.77
2023-05-20T17:32:57.709Z,19.72
2023-05-20T17:35:28.039Z,19.62
2023-05-20T17:37:55.066Z,19.48
2023-05-20T17:40:24.248Z,19.33
2023-05-20T17:42:50.963Z,19.23
2023-05-20T17:45:17.511Z,19.21
2023-05-20T17:47:44.518Z,19.09
2023-05-20T17:50:11.418Z,19.05
2023-05-20T17:52:40.414Z,18.96
2023-05-20T17:55:07.123Z,18.86
2023-05-20T17:57:36.166Z,18.81
2023-05-20T18:00:10.197Z,18.82
2023-05-20T18:02:38.423Z,18.74
2023-05-20T18:05:10.740Z,18.73
2023-05-20T18:07:39.952Z,18.62
2023-05-20T18:10:07.397Z,18.61
2023-05-20T18:12:33.970Z,18.65
2023-05-20T18:15:00.575Z,18.59
2023-05-20T18:17:29.911Z,18.57
2023-05-20T18:19:58.806Z,18.55
2023-05-20T18:22:26.464Z,18.56
2023-05-20T18:24:52.885Z,18.51
2023-05-20T18:27:19.525Z,18.33
2023-05-20T18:29:46.236Z,18.32
2023-05-20T18:32:12.911Z,18.25
2023-05-20T18:34:44.331Z,18.19
2023-05-20T18:37:11.201Z,18.07
2023-05-20T18:39:37.750Z,17.97
2023-05-20T18:42:11.666Z,17.94
2023-05-20T18:44:38.367Z,17.89
2023-05-20T18:47:05.204Z,17.85
2023-05-20T18:49:31.872Z,17.78
2023-05-20T18:51:58.438Z,17.74
2023-05-20T18:54:27.561Z,17.70
2023-05-20T18:56:58.999Z,17.71
2023-05-20T18:59:25.607Z,17.72
2023-05-20T19:01:52.159Z,17.66
2023-05-20T19:04:20.975Z,17.59
2023-05-20T19:06:49.073Z,17.54
2023-05-20T19:09:15.645Z,17.53
2023-05-20T19:11:44.964Z,17.51
2023-05-20T19:14:13.893Z,17.48
2023-05-20T19:16:45.365Z,17.43
2023-05-20T19:19:14.683Z,17.41
2023-05-20T19:21:43.570Z,17.38
2023-05-20T19:24:11.086Z,17.35
2023-05-20T19:26:37.773Z,17.25
2023-05-20T19:29:06.883Z,17.21
2023-05-20T19:31:37.059Z,17.12
2023-05-20T19:34:03.613Z,17.06
2023-05-20T19:36:32.699Z,16.99
2023-05-20T19:39:00.190Z,16.93
2023-05-20T19:41:27.292Z,16.86
2023-05-20T19:43:55.050Z,16.78
2023-05-20T19:46:21.615Z,16.73
2023-05-20T19:48:48.243Z,16.67
2023-05-20T19:51:14.797Z,16.61
2023-05-20T19:53:41.355Z,16.54
2023-05-20T19:56:08.064Z,16.46
2023-05-20T19:58:34.683Z,16.40
2023-05-20T20:01:04.491Z,16.25
2023-05-20T20:03:31.198Z,16.13
2023-05-20T20:06:05.224Z,16.06
2023-05-20T20:08:31.877Z,16.00
2023-05-20T20:10:58.478Z,15.94
2023-05-20T20:13:27.547Z,15.89
2023-05-20T20:15:54.184Z,15.87
2023-05-20T20:18:23.189Z,15.90
2023-05-20T20:20:52.108Z,15.93
2023-05-20T20:23:20.530Z,15.93
2023-05-20T20:25:50.698Z,15.95
2023-05-20T20:28:17.314Z,15.97
2023-05-20T20:30:48.694Z,15.97
2023-05-20T20:33:19.564Z,15.99
2023-05-20T20:35:48.653Z,16.03
2023-05-20T20:38:16.087Z,16.06
2023-05-20T20:40:42.800Z,16.03
2023-05-20T20:43:11.023Z,16.01
2023-05-20T20:45:38.037Z,16.00
2023-05-20T20:48:07.961Z,16.02
2023-05-20T20:50:37.337Z,16.01
2023-05-20T20:53:03.915Z,15.97
2023-05-20T20:55:34.475Z,15.96
2023-05-20T20:58:04.930Z,15.94
2023-05-20T21:00:31.516Z,15.96
2023-05-20T21:02:58.139Z,15.97
2023-05-20T21:05:28.998Z,15.97
2023-05-20T21:07:59.805Z,15.95
2023-05-20T21:10:32.029Z,15.94
2023-05-20T21:12:59.250Z,15.93
2023-05-20T21:15:26.332Z,15.93
2023-05-20T21:17:53.841Z,15.93
2023-05-20T21:20:22.901Z,15.95
2023-05-20T21:22:49.458Z,15.94
2023-05-20T21:25:16.199Z,15.89
2023-05-20T21:27:42.887Z,15.85
2023-05-20T21:30:12.295Z,15.82
2023-05-20T21:32:39.191Z,15.83
2023-05-20T21:35:10.964Z,15.84
2023-05-20T21:37:37.553Z,15.84
2023-05-20T21:40:04.559Z,15.82
2023-05-20T21:42:31.161Z,15.76
2023-05-20T21:45:00.027Z,15.71
2023-05-20T21:47:27.271Z,15.69
2023-05-20T21:49:54.581Z,15.65
2023-05-20T21:52:23.844Z,15.63
2023-05-20T21:54:52.862Z,15.61
2023-05-20T21:57:21.635Z,15.58
2023-05-20T21:59:50.644Z,15.59
2023-05-20T22:02:17.775Z,15.62
2023-05-20T22:04:44.378Z,15.61
2023-05-20T22:07:15.778Z,15.62
2023-05-20T22:09:42.375Z,15.61
2023-05-20T22:12:11.224Z,15.62
2023-05-20T22:14:40.120Z,15.61
2023-05-20T22:17:09.061Z,15.59
2023-05-20T22:19:37.933Z,15.59
2023-05-20T22:22:04.758Z,15.57
2023-05-20T22:24:36.349Z,15.57
2023-05-20T22:27:03.957Z,15.56
2023-05-20T22:29:32.790Z,15.57
2023-05-20T22:32:04.302Z,15.56
2023-05-20T22:34:31.177Z,15.55
2023-05-20T22:36:58.115Z,15.56
2023-05-20T22:39:27.226Z,15.57
2023-05-20T22:41:55.608Z,15.53
2023-05-20T22:44:26.758Z,15.49
2023-05-20T22:46:53.362Z,15.51
2023-05-20T22:49:19.989Z,15.47
2023-05-20T22:51:52.731Z,15.45
2023-05-20T22:54:22.082Z,15.44
2023-05-20T22:56:57.833Z,15.39
2023-05-20T22:59:24.976Z,15.41
2023-05-20T23:01:54.344Z,15.42
2023-05-20T23:04:24.321Z,15.40
2023-05-20T23:06:53.913Z,15.40
2023-05-20T23:09:20.997Z,15.43
2023-05-20T23:11:49.902Z,15.43
2023-05-20T23:14:16.466Z,15.38
2023-05-20T23:16:43.873Z,15.35
2023-05-20T23:19:10.462Z,15.36
2023-05-20T23:21:37.486Z,15.36
2023-05-20T23:24:06.476Z,15.34
2023-05-20T23:26:34.467Z,15.32
2023-05-20T23:29:03.280Z,15.31
2023-05-20T23:31:33.128Z,15.26
2023-05-20T23:33:59.804Z,15.26
2023-05-20T23:36:29.020Z,15.27
2023-05-20T23:38:56.411Z,15.22
2023-05-20T23:41:27.783Z,15.21
2023-05-20T23:43:54.483Z,15.21
2023-05-20T23:46:21.080Z,15.20
2023-05-20T23:48:53.024Z,15.18
2023-05-20T23:51:24.525Z,15.15
2023-05-20T23:53:51.094Z,15.10
2023-05-20T23:56:19.761Z,15.06
2023-05-20T23:58:48.542Z,15.05
